Tramway, North Carolina
Current Conditions -  °F | °C
As of 11:55 AM on Tuesday 27 Jan 2015 (Local Time) from KTTA Reporting Station
Broken Clouds Broken Clouds  
Wind Chill: 32°   Ceiling: 4700
Heat Index: 38°   Visibility: 10mi
Dew Point: 18°   Wind: 7mph
Humidity: 46%   Direction: 320°NW
Pressure: 29.84"   Gusts: NA
Location:  35.493°N, 79.1765°W
Report Text: KTTA 271655Z AUTO 32006KT 10SM BKN047 03/M08 A2984 RMK AO2 T00311076
Loading
Personal Weather Stations






























Interactive Weather Map New forecast layout! Learn more

10-Day Weather Forecast

Advertisements
Track Severe Weather on mobile